Marcel — ONDP — position and weather

sailwx.info

Track history (hours):
 
Tides and Currents Weather Stations Pressure Air Temp Water Temp Dewpoint Dewpoint Depression Visibility Wind Speed Wind Dir Waves Ship Positions

Marcel

Last reported at 2015-Jan-27 20:31 UTC. Time now 2015-Jan-27 21:04 UTC.
Position N 43°21' W 003°02'.

Length 88 m; draft 5.5 m.

Type: Cargo ship. MMSI: 205439000.

Date/timePositionNaut miles runAvg speedWind from/ knotsBaromVisibWave heightAir tempDewpointWater temp
2015-Jan-27 20:31N 43°21' W 003°02'109 4.2
2015-Jan-26 18:26N 43°47' W 005°29'  
2015-Jan-24 09:10N 39°04' W 009°50'12 6.9
2015-Jan-24 07:29N 38°52' W 009°50'7 6.8
2015-Jan-24 06:31N 38°46' W 009°50'7 7.0
2015-Jan-24 05:33N 38°39' W 009°48'7 7.0
2015-Jan-24 04:32N 38°32' W 009°46'7 7.1
2015-Jan-24 03:31N 38°25' W 009°44'9 7.2
2015-Jan-24 02:18N 38°17' W 009°42'20 7.3
2015-Jan-23 23:33N 37°57' W 009°36'7 7.3
2015-Jan-23 22:32N 37°50' W 009°34'7 7.2
2015-Jan-23 21:33N 37°43' W 009°32'216 6.3
2015-Jan-22 11:18N 35°58' W 005°37'5 6.3
2015-Jan-22 10:29N 35°60' W 005°31'7 4.9
2015-Jan-22 09:04N 36°04' W 005°23'5 7.7
2015-Jan-22 08:23N 36°09' W 005°22'0 0.1
2015-Jan-22 05:33N 36°09' W 005°22'4 4.1
2015-Jan-22 04:33N 36°05' W 005°20'6 1.7
2015-Jan-22 01:17N 36°02' W 005°14'6 7.9
2015-Jan-22 00:33N 36°02' W 005°21'8 7.8
2015-Jan-21 23:33N 35°56' W 005°28'  
Track history (hours):
 
Tides and Currents Weather Stations Pressure Air Temp Water Temp Dewpoint Dewpoint Depression Visibility Wind Speed Wind Dir Waves Ship Positions

Marcel

Last reported at 2015-Jan-27 20:31 UTC. Time now 2015-Jan-27 21:04 UTC.
Position N 43°21' W 003°02'.

Length 88 m; draft 5.5 m.

Type: Cargo ship. MMSI: 205439000.

Date/timePositionNaut miles runAvg speedWind from/ knotsBaromVisibWave heightAir tempDewpointWater temp
2015-Jan-27 20:31N 43°21' W 003°02'109 4.2
2015-Jan-26 18:26N 43°47' W 005°29'  
2015-Jan-24 09:10N 39°04' W 009°50'12 6.9
2015-Jan-24 07:29N 38°52' W 009°50'7 6.8
2015-Jan-24 06:31N 38°46' W 009°50'7 7.0
2015-Jan-24 05:33N 38°39' W 009°48'7 7.0
2015-Jan-24 04:32N 38°32' W 009°46'7 7.1
2015-Jan-24 03:31N 38°25' W 009°44'9 7.2
2015-Jan-24 02:18N 38°17' W 009°42'20 7.3
2015-Jan-23 23:33N 37°57' W 009°36'7 7.3
2015-Jan-23 22:32N 37°50' W 009°34'7 7.2
2015-Jan-23 21:33N 37°43' W 009°32'216 6.3
2015-Jan-22 11:18N 35°58' W 005°37'5 6.3
2015-Jan-22 10:29N 35°60' W 005°31'7 4.9
2015-Jan-22 09:04N 36°04' W 005°23'5 7.7
2015-Jan-22 08:23N 36°09' W 005°22'0 0.1
2015-Jan-22 05:33N 36°09' W 005°22'4 4.1
2015-Jan-22 04:33N 36°05' W 005°20'6 1.7
2015-Jan-22 01:17N 36°02' W 005°14'6 7.9
2015-Jan-22 00:33N 36°02' W 005°21'8 7.8
2015-Jan-21 23:33N 35°56' W 005°28'  

Dump ship's entire track history